createdAt,value
2019-02-06T20:13:15.239Z,11.85
2019-02-06T20:15:42.694Z,9.55
2019-02-06T20:18:10.457Z,16.35
2019-02-06T20:20:37.922Z,13.48
2019-02-06T20:23:05.374Z,13.03
2019-02-06T20:25:32.853Z,10.93
2019-02-06T20:28:00.308Z,11.33
2019-02-06T20:30:29.355Z,10.23
2019-02-06T20:32:57.158Z,10.23
2019-02-06T20:35:24.808Z,8.75
2019-02-06T20:37:52.769Z,12.03
2019-02-06T20:40:21.437Z,8.33
2019-02-06T20:42:48.902Z,12.30
2019-02-06T20:45:16.369Z,12.13
2019-02-06T20:47:43.855Z,13.90
2019-02-06T20:50:21.725Z,13.40
2019-02-06T20:52:49.255Z,7.33
2019-02-06T20:55:17.308Z,10.68
2019-02-06T20:57:44.758Z,8.85
2019-02-06T21:00:13.957Z,7.62
2019-02-06T21:02:41.407Z,9.40
2019-02-06T21:05:10.477Z,10.72
2019-02-06T21:07:37.937Z,6.75
2019-02-06T21:10:09.666Z,12.07
2019-02-06T21:12:37.526Z,10.40
2019-02-06T21:15:06.293Z,11.63
2019-02-06T21:17:33.756Z,7.00
2019-02-06T21:20:01.215Z,10.13
2019-02-06T21:22:28.672Z,7.92
2019-02-06T21:24:56.131Z,9.90
2019-02-06T21:27:23.632Z,7.80
2019-02-06T21:29:51.513Z,9.95
2019-02-06T21:32:18.977Z,6.72
2019-02-06T21:34:46.441Z,10.65
2019-02-06T21:37:13.898Z,6.87
2019-02-06T21:39:41.464Z,10.40
2019-02-06T21:42:08.985Z,8.03
2019-02-06T21:44:36.447Z,8.45
2019-02-06T21:47:04.961Z,8.20
2019-02-06T21:49:32.421Z,8.70
2019-02-06T21:51:59.880Z,7.85
2019-02-06T21:54:27.342Z,7.62
2019-02-06T21:56:54.816Z,9.60
2019-02-06T21:59:22.271Z,6.47
2019-02-06T22:01:49.732Z,8.98
2019-02-06T22:04:17.181Z,7.00
2019-02-06T22:06:44.648Z,7.55
2019-02-06T22:09:12.118Z,6.12
2019-02-06T22:11:39.659Z,8.60
2019-02-06T22:14:11.438Z,6.33
2019-02-06T22:16:38.888Z,6.55
2019-02-06T22:19:06.414Z,5.75
2019-02-06T22:21:34.273Z,8.13
2019-02-06T22:24:01.767Z,7.03
2019-02-06T22:26:29.217Z,7.15
2019-02-06T22:28:56.713Z,5.65
2019-02-06T22:31:24.166Z,7.15
2019-02-06T22:33:51.626Z,6.67
2019-02-06T22:36:19.082Z,7.22
2019-02-06T22:38:46.752Z,8.10
2019-02-06T22:41:14.238Z,6.72
2019-02-06T22:43:41.693Z,6.90
2019-02-06T22:46:09.146Z,6.15
2019-02-06T22:48:36.618Z,5.55
2019-02-06T22:51:04.078Z,5.45
2019-02-06T22:53:31.544Z,6.15
2019-02-06T22:55:59.010Z,9.20
2019-02-06T22:58:26.564Z,6.72
2019-02-06T23:00:59.263Z,5.45
2019-02-06T23:03:28.421Z,5.75
2019-02-06T23:05:55.893Z,5.10
2019-02-06T23:08:23.369Z,6.83
2019-02-06T23:10:50.842Z,6.30
2019-02-06T23:13:18.615Z,6.47
2019-02-06T23:15:46.081Z,6.00
2019-02-06T23:18:13.550Z,7.42
2019-02-06T23:20:41.012Z,4.75
2019-02-06T23:23:08.480Z,5.78
2019-02-06T23:25:35.935Z,6.67
2019-02-06T23:28:03.399Z,5.55
2019-02-06T23:30:31.165Z,6.28
2019-02-06T23:32:58.658Z,4.40
2019-02-06T23:35:26.246Z,5.37
2019-02-06T23:37:53.696Z,5.45
2019-02-06T23:40:21.341Z,5.85
2019-02-06T23:42:48.826Z,4.45
2019-02-06T23:45:16.292Z,5.87
2019-02-06T23:47:43.856Z,4.70
2019-02-06T23:50:12.884Z,5.58
2019-02-06T23:52:40.337Z,4.05
2019-02-06T23:55:07.795Z,5.58
2019-02-06T23:57:37.173Z,4.87
